createdAt,value
2022-12-11T00:00:24.451Z,133.82
2022-12-11T02:14:30.920Z,611.25
2022-12-11T02:16:59.954Z,415.60
2022-12-11T02:19:39.220Z,734.35
2022-12-11T02:21:47.764Z,681.20
2022-12-11T02:24:04.763Z,875.55
2022-12-11T02:26:23.865Z,656.53
2022-12-11T02:28:32.321Z,727.78
2022-12-11T02:30:37.169Z,674.63
2022-12-11T02:32:55.483Z,721.10
2022-12-11T02:35:35.728Z,931.30
2022-12-11T02:37:41.754Z,460.45
2022-12-11T02:39:45.582Z,686.17
2022-12-11T02:41:50.843Z,452.85
2022-12-11T02:43:55.329Z,1029.15
2022-12-11T02:45:59.222Z,1311.90
2022-12-11T02:48:03.979Z,1421.82
2022-12-11T02:50:11.731Z,1048.68
2022-12-11T02:52:16.227Z,304.60
2022-12-11T02:54:28.549Z,174.30
2022-12-11T02:58:47.214Z,288.42
2022-12-11T03:00:49.313Z,576.08
2022-12-11T03:04:53.300Z,760.88
2022-12-11T03:09:02.400Z,112.18
2022-12-11T03:11:04.365Z,237.27
2022-12-11T03:13:06.302Z,476.02
2022-12-11T03:15:13.915Z,596.05
2022-12-11T03:17:20.049Z,177.57
2022-12-11T03:19:37.174Z,218.13
2022-12-11T03:21:38.958Z,566.60
2022-12-11T03:23:45.179Z,247.63
2022-12-11T03:25:56.211Z,586.30
2022-12-11T03:28:02.489Z,355.92
2022-12-11T03:30:10.519Z,414.25
2022-12-11T03:32:23.077Z,651.50
2022-12-11T03:34:32.477Z,536.08
2022-12-11T03:36:37.565Z,272.08
2022-12-11T03:38:49.339Z,618.78
2022-12-11T03:40:55.850Z,277.23
2022-12-11T03:42:58.639Z,237.80
2022-12-11T03:45:02.537Z,134.70
2022-12-11T03:47:07.465Z,127.13
2022-12-11T03:49:22.192Z,571.15
2022-12-11T03:51:24.882Z,207.95
2022-12-11T03:53:27.942Z,184.98
2022-12-11T03:55:31.045Z,153.98
2022-12-11T03:57:37.531Z,140.98
2022-12-11T03:59:39.591Z,155.80
2022-12-11T04:01:41.531Z,199.95
2022-12-11T04:03:43.438Z,238.65
2022-12-11T04:05:50.555Z,374.50
2022-12-11T04:07:52.470Z,276.95
2022-12-11T04:09:54.954Z,374.42
2022-12-11T04:11:56.843Z,365.25
2022-12-11T04:14:17.298Z,225.88
2022-12-11T04:16:19.154Z,355.50
2022-12-11T04:18:39.858Z,280.38
2022-12-11T04:21:00.206Z,605.13
2022-12-11T04:23:23.221Z,472.85
2022-12-11T04:25:25.097Z,355.38
2022-12-11T04:27:45.948Z,259.92
2022-12-11T04:29:47.848Z,226.43
2022-12-11T04:31:50.812Z,225.77
2022-12-11T04:33:53.321Z,462.35
2022-12-11T04:35:57.886Z,125.55
2022-12-11T04:37:59.874Z,217.63
2022-12-11T04:40:02.792Z,108.13
2022-12-11T04:42:04.721Z,414.42
2022-12-11T04:44:06.575Z,393.35
2022-12-11T04:46:11.874Z,384.85
2022-12-11T04:48:13.808Z,484.27
2022-12-11T04:50:16.136Z,291.88
2022-12-11T04:52:18.828Z,132.23
2022-12-11T04:54:20.766Z,366.90
2022-12-11T04:56:22.733Z,355.17
2022-12-11T04:58:26.144Z,306.55
2022-12-11T05:00:27.997Z,188.73
2022-12-11T05:02:29.863Z,128.15
2022-12-11T05:04:33.261Z,188.05
2022-12-11T05:06:35.106Z,419.45
2022-12-11T05:08:40.237Z,190.80
2022-12-11T05:10:47.135Z,248.88
2022-12-11T05:12:51.788Z,114.05
2022-12-11T05:14:54.770Z,152.07
2022-12-11T05:16:56.654Z,185.25
2022-12-11T05:18:58.548Z,125.45
2022-12-11T05:21:06.831Z,135.77
2022-12-11T05:23:08.823Z,116.90
2022-12-11T05:25:11.291Z,114.72
2022-12-11T05:27:13.425Z,119.75
2022-12-11T05:29:15.322Z,131.88
2022-12-11T05:31:20.704Z,118.35
2022-12-11T05:33:22.718Z,99.35
2022-12-11T05:35:24.619Z,101.78
2022-12-11T05:37:26.487Z,116.55
2022-12-11T05:39:28.391Z,110.70
2022-12-11T05:41:32.636Z,106.75
2022-12-11T05:43:36.490Z,118.78
2022-12-11T05:45:38.456Z,106.22
2022-12-11T05:47:40.481Z,98.82
2022-12-11T05:51:44.229Z,83.30
2022-12-11T05:53:47.584Z,89.35
2022-12-11T05:55:49.442Z,83.05
2022-12-11T05:57:51.443Z,77.47
2022-12-11T08:13:33.576Z,35.42
2022-12-11T08:15:35.910Z,37.80
2022-12-11T08:17:41.702Z,32.25
2022-12-11T08:19:43.637Z,32.75
2022-12-11T08:21:45.571Z,29.92
2022-12-11T08:23:47.875Z,29.58
2022-12-11T08:25:49.756Z,33.05
2022-12-11T08:27:51.641Z,29.10
2022-12-11T08:29:53.625Z,32.70
2022-12-11T08:31:55.701Z,34.88
2022-12-11T08:36:03.913Z,34.72
2022-12-11T08:38:06.106Z,30.60
2022-12-11T08:40:08.872Z,36.17
2022-12-11T08:42:10.831Z,31.67
2022-12-11T08:44:16.554Z,32.80
2022-12-11T08:46:18.817Z,31.80
2022-12-11T08:48:20.719Z,30.55
2022-12-11T08:50:22.753Z,31.20
2022-12-11T08:54:26.620Z,32.13
2022-12-11T08:56:29.645Z,29.38
2022-12-11T08:58:31.542Z,30.05
2022-12-11T09:00:33.452Z,32.25
2022-12-11T09:02:35.761Z,30.77
2022-12-11T09:04:37.723Z,25.33
2022-12-11T09:06:39.819Z,26.88
2022-12-11T09:08:47.274Z,24.13
2022-12-11T09:11:03.607Z,28.67
2022-12-11T09:13:05.686Z,37.92
2022-12-11T09:15:08.693Z,25.83
2022-12-11T09:17:12.431Z,36.47
2022-12-11T09:19:21.757Z,26.23
2022-12-11T09:21:27.806Z,25.92
2022-12-11T09:23:29.899Z,25.17
2022-12-11T09:25:31.801Z,28.02
2022-12-11T09:29:36.233Z,28.00
2022-12-11T09:31:38.241Z,24.38
2022-12-11T09:35:45.542Z,23.98
2022-12-11T09:37:47.570Z,28.63
2022-12-11T09:39:54.694Z,23.42
2022-12-11T09:42:33.923Z,33.88
2022-12-11T09:45:02.652Z,28.80
2022-12-11T09:47:32.020Z,30.83
2022-12-11T09:49:42.667Z,24.58
2022-12-11T09:51:50.179Z,29.23
2022-12-11T09:53:54.470Z,33.65
2022-12-11T09:56:34.170Z,24.33
2022-12-11T09:58:44.549Z,22.60
2022-12-11T10:00:51.663Z,22.33
2022-12-11T10:03:02.713Z,25.08
2022-12-11T10:05:48.242Z,35.20
2022-12-11T10:08:20.923Z,23.52
2022-12-11T10:10:43.148Z,29.55
2022-12-11T10:12:53.668Z,26.55
2022-12-11T10:15:23.752Z,24.05
2022-12-11T10:17:28.541Z,31.88
2022-12-11T10:19:32.476Z,25.15
2022-12-11T10:21:42.011Z,23.63
2022-12-11T10:23:51.132Z,33.53
2022-12-11T10:26:04.439Z,31.10
2022-12-11T10:28:23.963Z,30.50
2022-12-11T10:30:34.309Z,30.40
2022-12-11T10:32:45.958Z,33.47
2022-12-11T10:34:51.292Z,34.80
2022-12-11T10:37:00.151Z,28.80
2022-12-11T10:39:03.901Z,23.88
2022-12-11T10:41:15.172Z,30.60
2022-12-11T10:43:17.563Z,24.88
2022-12-11T10:45:20.303Z,29.15
2022-12-11T10:47:22.739Z,32.22
2022-12-11T10:49:28.187Z,28.63
2022-12-11T10:51:32.932Z,25.77
2022-12-11T10:53:36.110Z,27.23
2022-12-11T10:55:45.819Z,24.92
2022-12-11T10:57:57.839Z,19.75
2022-12-11T11:00:00.752Z,23.20
2022-12-11T11:02:08.416Z,20.90
2022-12-11T11:04:27.190Z,22.35
2022-12-11T11:06:30.506Z,18.98
2022-12-11T11:08:50.042Z,23.52
2022-12-11T11:10:58.924Z,22.15
2022-12-11T11:13:02.076Z,18.77
2022-12-11T11:15:29.503Z,19.20
2022-12-11T11:17:35.755Z,22.83
2022-12-11T11:19:39.130Z,20.77
2022-12-11T11:22:02.553Z,20.25
2022-12-11T11:24:05.030Z,19.77
2022-12-11T11:26:14.244Z,21.30
2022-12-11T11:28:48.185Z,22.10
2022-12-11T11:33:59.407Z,19.98
2022-12-11T11:36:21.360Z,23.58
2022-12-11T11:38:28.153Z,19.45
2022-12-11T11:40:36.894Z,20.95
2022-12-11T11:43:06.201Z,21.13
2022-12-11T11:45:23.166Z,17.83
2022-12-11T11:47:31.673Z,16.83
2022-12-11T11:49:39.823Z,21.05
2022-12-11T11:52:06.283Z,19.15
2022-12-11T11:54:28.668Z,19.70
2022-12-11T11:56:37.775Z,18.25
2022-12-11T11:58:46.179Z,18.15
2022-12-11T12:00:48.147Z,18.80
2022-12-11T14:18:36.892Z,21.90
2022-12-11T14:20:39.600Z,23.98
2022-12-11T14:22:41.485Z,22.50
2022-12-11T14:24:53.950Z,18.08
2022-12-11T14:26:56.304Z,22.00
2022-12-11T14:28:58.278Z,19.15
2022-12-11T14:31:01.989Z,20.13
2022-12-11T14:33:05.583Z,20.92
2022-12-11T14:35:18.806Z,19.80
2022-12-11T14:37:23.758Z,17.48
2022-12-11T14:39:50.281Z,18.77
2022-12-11T14:42:03.644Z,19.85
2022-12-11T14:44:12.477Z,21.92
2022-12-11T14:46:21.998Z,18.35
2022-12-11T14:48:30.076Z,18.85
2022-12-11T14:50:50.183Z,16.95
2022-12-11T14:53:02.250Z,20.92
2022-12-11T14:55:28.392Z,20.27
2022-12-11T14:57:33.212Z,25.05
2022-12-11T14:59:43.921Z,21.42
2022-12-11T15:01:45.944Z,24.40
2022-12-11T15:05:55.466Z,25.77
2022-12-11T15:08:13.004Z,29.60
2022-12-11T15:10:31.410Z,25.52
2022-12-11T15:12:33.562Z,27.45
2022-12-11T15:16:39.935Z,25.02
2022-12-11T15:18:43.089Z,25.98
2022-12-11T15:20:49.827Z,21.23
2022-12-11T15:22:52.369Z,20.45
2022-12-11T15:24:55.108Z,25.95
2022-12-11T15:26:59.450Z,26.45
2022-12-11T15:29:22.670Z,23.55
2022-12-11T15:31:30.704Z,25.85
2022-12-11T15:33:34.732Z,40.38
2022-12-11T15:35:38.369Z,24.88
2022-12-11T15:37:40.229Z,29.55
2022-12-11T15:39:42.071Z,21.02
2022-12-11T15:41:44.224Z,21.33
2022-12-11T15:45:47.961Z,19.63
2022-12-11T15:47:50.766Z,19.23
2022-12-11T15:50:02.216Z,22.95
2022-12-11T15:52:04.384Z,20.42
2022-12-11T15:56:15.023Z,20.73
2022-12-11T15:58:23.255Z,19.65
2022-12-11T16:00:27.058Z,19.38
2022-12-11T16:02:29.018Z,21.25
2022-12-11T16:04:30.889Z,23.33
2022-12-11T16:06:33.411Z,28.30
2022-12-11T16:08:35.256Z,25.27
2022-12-11T16:10:37.664Z,25.70
2022-12-11T16:12:39.816Z,28.67
2022-12-11T16:16:43.799Z,26.63
2022-12-11T16:18:45.669Z,23.05
2022-12-11T16:20:47.948Z,24.63
2022-12-11T16:22:49.806Z,31.48
2022-12-11T16:24:55.346Z,21.98
2022-12-11T16:26:57.226Z,29.73
2022-12-11T16:28:59.076Z,28.52
2022-12-11T16:31:01.922Z,22.05
2022-12-11T16:33:12.151Z,26.60
2022-12-11T16:35:14.726Z,27.10
2022-12-11T16:39:18.455Z,23.73
2022-12-11T16:41:20.407Z,20.40
2022-12-11T16:43:22.298Z,28.65
2022-12-11T16:45:25.818Z,30.15
2022-12-11T16:47:30.332Z,28.20
2022-12-11T16:49:32.348Z,29.17
2022-12-11T16:51:34.281Z,20.67
2022-12-11T16:53:36.632Z,29.90
2022-12-11T16:55:40.158Z,23.85
2022-12-11T16:57:42.573Z,25.10
2022-12-11T16:59:44.495Z,30.35
2022-12-11T17:01:46.396Z,30.00
2022-12-11T17:03:48.617Z,28.85
2022-12-11T17:07:52.471Z,25.42
2022-12-11T17:11:56.817Z,31.73
2022-12-11T17:14:00.166Z,29.45
2022-12-11T17:16:09.922Z,29.92
2022-12-11T17:18:12.484Z,37.05
2022-12-11T17:20:14.437Z,42.13
2022-12-11T17:22:16.443Z,30.50
2022-12-11T17:26:20.453Z,27.30
2022-12-11T17:28:22.576Z,31.20
2022-12-11T17:32:26.456Z,29.92
2022-12-11T17:36:36.612Z,40.13
2022-12-11T17:38:38.483Z,36.70
2022-12-11T17:40:42.672Z,37.90
2022-12-11T17:42:44.971Z,35.95
2022-12-11T17:44:46.940Z,43.63
2022-12-11T17:46:48.968Z,47.97
2022-12-11T17:48:51.037Z,35.55
2022-12-11T17:52:57.692Z,29.58
2022-12-11T17:54:59.712Z,33.50
2022-12-11T17:57:02.390Z,38.00
2022-12-11T17:59:04.668Z,29.60
2022-12-11T20:14:23.907Z,14.75
2022-12-11T20:16:53.430Z,13.63
2022-12-11T20:18:48.882Z,12.05
2022-12-11T20:21:00.709Z,13.77
2022-12-11T20:23:02.668Z,10.73
2022-12-11T20:25:04.864Z,10.13
2022-12-11T20:29:08.855Z,7.68
2022-12-11T20:33:22.498Z,8.45
2022-12-11T20:35:26.427Z,7.78
2022-12-11T20:37:29.152Z,8.75
2022-12-11T20:39:32.151Z,9.75
2022-12-11T20:41:34.176Z,11.18
2022-12-11T20:43:42.811Z,9.88
2022-12-11T20:45:48.959Z,9.60
2022-12-11T20:47:50.975Z,9.60
2022-12-11T20:49:52.808Z,7.40
2022-12-11T20:51:54.880Z,11.35
2022-12-11T20:56:02.080Z,12.55
2022-12-11T20:58:04.007Z,13.35
2022-12-11T21:00:07.121Z,11.98
2022-12-11T21:02:11.047Z,12.52
2022-12-11T21:04:12.937Z,17.38
2022-12-11T21:06:31.050Z,13.10
2022-12-11T21:08:33.287Z,23.02
2022-12-11T21:10:35.186Z,16.02
2022-12-11T21:12:38.239Z,17.17
2022-12-11T21:14:40.138Z,18.38
2022-12-11T21:16:42.355Z,23.23
2022-12-11T21:18:46.416Z,19.67
2022-12-11T21:20:48.256Z,21.33
2022-12-11T21:22:50.139Z,21.88
2022-12-11T21:24:52.236Z,21.05
2022-12-11T21:28:57.648Z,23.33
2022-12-11T21:31:02.188Z,24.55
2022-12-11T21:33:04.089Z,27.05
2022-12-11T21:35:06.462Z,27.13
2022-12-11T21:37:13.131Z,27.35
2022-12-11T21:39:15.586Z,26.27
2022-12-11T21:41:20.979Z,26.77
2022-12-11T21:43:23.920Z,23.08
2022-12-11T21:47:47.749Z,19.67
2022-12-11T21:49:49.678Z,20.02
2022-12-11T21:51:51.528Z,16.55
2022-12-11T21:53:54.879Z,13.77
2022-12-11T21:55:56.705Z,13.38
2022-12-11T21:57:58.670Z,14.00
2022-12-11T22:00:00.642Z,13.75
2022-12-11T22:02:03.195Z,9.98
2022-12-11T22:04:05.725Z,16.25
2022-12-11T22:06:07.860Z,14.77
2022-12-11T22:10:11.967Z,16.42
2022-12-11T22:12:26.898Z,17.98
2022-12-11T22:14:31.309Z,16.80
2022-12-11T22:16:35.099Z,19.27
2022-12-11T22:18:37.158Z,22.13
2022-12-11T22:20:39.177Z,17.30
2022-12-11T22:22:43.636Z,22.40
2022-12-11T22:24:45.771Z,19.25
2022-12-11T22:28:50.657Z,19.85
2022-12-11T22:30:52.644Z,21.70
2022-12-11T22:32:54.708Z,18.88
2022-12-11T22:34:57.845Z,19.13
2022-12-11T22:36:59.832Z,18.27
2022-12-11T22:39:02.709Z,20.30
2022-12-11T22:41:31.685Z,24.35
2022-12-11T22:43:39.511Z,21.95
2022-12-11T22:45:58.675Z,23.00
2022-12-11T22:48:28.591Z,20.20
2022-12-11T22:50:32.527Z,25.50
2022-12-11T22:52:35.680Z,24.52
2022-12-11T22:54:42.272Z,32.60
2022-12-11T22:56:47.217Z,30.00
2022-12-11T22:58:57.529Z,29.92
2022-12-11T23:01:00.124Z,27.75
2022-12-11T23:03:02.884Z,32.00
2022-12-11T23:05:06.628Z,29.23
2022-12-11T23:07:08.882Z,30.63
2022-12-11T23:09:12.113Z,29.35
2022-12-11T23:11:21.262Z,25.13
2022-12-11T23:13:23.084Z,37.42
2022-12-11T23:15:25.060Z,32.08
2022-12-11T23:17:30.575Z,30.20
2022-12-11T23:19:32.513Z,26.92
2022-12-11T23:21:34.825Z,30.38
2022-12-11T23:23:37.350Z,32.03
2022-12-11T23:25:39.270Z,26.73
2022-12-11T23:27:41.552Z,31.17
2022-12-11T23:29:43.559Z,27.83
2022-12-11T23:31:45.392Z,25.42
2022-12-11T23:33:47.264Z,27.25
2022-12-11T23:35:49.231Z,19.83
2022-12-11T23:37:51.194Z,22.92
2022-12-11T23:39:53.137Z,25.60
2022-12-11T23:41:58.082Z,28.75
2022-12-11T23:44:00.002Z,24.25
2022-12-11T23:46:03.189Z,23.20
2022-12-11T23:48:05.166Z,26.67
2022-12-11T23:50:07.386Z,29.75
2022-12-11T23:52:12.131Z,23.33
2022-12-11T23:54:14.351Z,21.50
2022-12-11T23:56:26.766Z,20.30
